createdAt,value
2024-01-04T00:01:23.678Z,98016.94
2024-01-04T00:06:26.637Z,98022.97
2024-01-04T00:11:30.867Z,98024.63
2024-01-04T00:16:34.593Z,98019.44
2024-01-04T00:21:37.443Z,98027.66
2024-01-04T00:26:41.691Z,98019.63
2024-01-04T00:31:44.757Z,98011.94
2024-01-04T00:36:47.633Z,98003.72
2024-01-04T00:41:51.908Z,97992.31
2024-01-04T00:46:54.958Z,97998.16
2024-01-04T00:51:57.800Z,98000.69
2024-01-04T00:57:02.152Z,97998.88
2024-01-04T01:02:05.761Z,98006.59
2024-01-04T01:07:08.612Z,98005.44
2024-01-04T01:12:12.956Z,98020.69
2024-01-04T01:17:15.834Z,98020.53
2024-01-04T01:22:18.728Z,98022.88
2024-01-04T01:27:23.401Z,98016.38
2024-01-04T01:32:26.282Z,98023.22
2024-01-04T01:37:29.174Z,98035.97
2024-01-04T01:42:33.346Z,98018.72
2024-01-04T01:47:36.328Z,98029.94
2024-01-04T01:52:39.380Z,98024.06
2024-01-04T01:57:43.771Z,98021.06
2024-01-04T02:02:49.159Z,98026.91
2024-01-04T02:07:52.188Z,98034.28
2024-01-04T02:12:57.489Z,98037.13
2024-01-04T02:18:00.516Z,98031.22
2024-01-04T02:23:05.611Z,98031.53
2024-01-04T02:28:08.734Z,98043.06
2024-01-04T02:33:11.789Z,98056.63
2024-01-04T02:38:16.113Z,98049.44
2024-01-04T02:43:18.953Z,98052.63
2024-01-04T02:48:21.932Z,98058.97
2024-01-04T02:53:26.257Z,98053.94
2024-01-04T02:58:29.089Z,98055.09
2024-01-04T03:03:32.016Z,98070.31
2024-01-04T03:08:36.362Z,98068.28
2024-01-04T03:13:39.247Z,98056.09
2024-01-04T03:18:42.140Z,98059.75
2024-01-04T03:23:46.476Z,98053.75
2024-01-04T03:28:49.430Z,98055.75
2024-01-04T03:33:53.196Z,98069.44
2024-01-04T03:38:57.623Z,98073.13
2024-01-04T03:44:00.476Z,98074.44
2024-01-04T03:49:03.417Z,98082.78
2024-01-04T03:54:07.793Z,98088.13
2024-01-04T03:59:10.676Z,98091.97
2024-01-04T04:04:13.702Z,98090.63
2024-01-04T04:09:19.488Z,98089.97
2024-01-04T04:14:22.851Z,98099.97
2024-01-04T04:19:25.761Z,98113.66
2024-01-04T04:24:31.540Z,98120.69
2024-01-04T04:29:34.468Z,98117.66
2024-01-04T04:34:37.576Z,98116.97
2024-01-04T04:39:41.879Z,98133.50
2024-01-04T04:44:44.811Z,98131.81
2024-01-04T04:49:47.792Z,98136.63
2024-01-04T04:54:51.963Z,98144.97
2024-01-04T04:59:55.224Z,98153.00
2024-01-04T05:04:58.179Z,98153.31
2024-01-04T05:10:02.369Z,98157.28
2024-01-04T05:15:06.094Z,98166.28
2024-01-04T05:20:10.060Z,98188.81
2024-01-04T05:25:14.483Z,98196.16
2024-01-04T05:30:17.734Z,98203.34
2024-01-04T05:35:20.863Z,98209.81
2024-01-04T05:40:25.066Z,98225.88
2024-01-04T05:45:27.941Z,98220.84
2024-01-04T05:50:30.900Z,98234.53
2024-01-04T05:55:35.047Z,98244.53
2024-01-04T06:00:37.974Z,98249.88
2024-01-04T06:05:41.026Z,98247.34
2024-01-04T06:10:45.777Z,98263.84
2024-01-04T06:15:48.589Z,98264.69
2024-01-04T06:20:51.410Z,98278.22
2024-01-04T06:25:55.670Z,98289.06
2024-01-04T06:30:58.623Z,98289.88
2024-01-04T06:36:02.713Z,98304.25
2024-01-04T06:41:08.816Z,98299.75
2024-01-04T06:46:14.136Z,98312.38
2024-01-04T06:51:17.252Z,98320.56
2024-01-04T06:56:21.519Z,98333.09
2024-01-04T07:01:24.435Z,98345.59
2024-01-04T07:06:27.338Z,98350.97
2024-01-04T07:11:32.503Z,98351.09
2024-01-04T07:16:35.314Z,98367.31
2024-01-04T07:21:38.177Z,98375.63
2024-01-04T07:26:42.453Z,98379.13
2024-01-04T07:31:45.298Z,98393.63
2024-01-04T07:36:48.147Z,98397.97
2024-01-04T07:41:52.487Z,98397.97
2024-01-04T07:46:55.302Z,98395.44
2024-01-04T07:51:58.209Z,98398.13
2024-01-04T07:57:03.001Z,98417.44
2024-01-04T08:02:06.009Z,98425.88
2024-01-04T08:07:09.389Z,98435.47
2024-01-04T08:12:14.241Z,98461.78
2024-01-04T08:17:17.245Z,98465.75
2024-01-04T08:22:20.128Z,98457.16
2024-01-04T08:27:25.400Z,98458.09
2024-01-04T08:32:28.564Z,98469.19
2024-01-04T08:37:31.452Z,98477.84
2024-01-04T08:42:35.692Z,98482.28
2024-01-04T08:47:38.739Z,98490.41
2024-01-04T08:52:41.686Z,98500.50
2024-01-04T08:57:46.075Z,98516.47
2024-01-04T09:02:49.029Z,98523.78
2024-01-04T09:07:51.941Z,98523.41
2024-01-04T09:12:56.111Z,98536.34
2024-01-04T09:17:59.227Z,98543.53
2024-01-04T09:23:02.195Z,98549.25
2024-01-04T09:28:06.988Z,98546.44
2024-01-04T09:33:09.975Z,98576.56
2024-01-04T09:38:12.831Z,98586.25
2024-01-04T09:43:17.193Z,98608.91
2024-01-04T09:48:28.188Z,98582.53
2024-01-04T09:53:34.715Z,98620.13
2024-01-04T09:58:39.004Z,98598.31
2024-01-04T10:03:41.869Z,98621.41
2024-01-04T10:08:44.739Z,98634.78
2024-01-04T10:13:50.837Z,98639.56
2024-01-04T10:18:54.596Z,98647.28
2024-01-04T10:23:59.345Z,98653.88
2024-01-04T10:29:03.690Z,98645.50
2024-01-04T10:34:06.594Z,98660.28
2024-01-04T10:39:09.823Z,98656.28
2024-01-04T10:44:13.986Z,98653.19
2024-01-04T10:49:17.676Z,98654.25
2024-01-04T10:54:20.824Z,98657.50
2024-01-04T10:59:25.122Z,98655.50
2024-01-04T11:04:30.917Z,98662.53
2024-01-04T11:09:35.320Z,98670.13
2024-01-04T11:14:39.582Z,98668.81
2024-01-04T11:19:51.291Z,98670.50
2024-01-04T11:24:58.013Z,98678.00
2024-01-04T11:30:02.371Z,98688.56
2024-01-04T11:35:06.535Z,98684.56
2024-01-04T11:40:10.223Z,98692.38
2024-01-04T11:45:17.797Z,98690.56
2024-01-04T11:50:25.551Z,98693.22
2024-01-04T11:55:30.340Z,98701.69
2024-01-04T12:00:35.648Z,98712.28
2024-01-04T12:05:38.674Z,98713.91
2024-01-04T12:10:42.421Z,98738.41
2024-01-04T12:15:46.609Z,98746.75
2024-01-04T12:20:49.514Z,98750.00
2024-01-04T12:25:52.473Z,98761.69
2024-01-04T12:30:56.768Z,98762.16
2024-01-04T12:36:00.856Z,98768.59
2024-01-04T12:41:03.996Z,98776.63
2024-01-04T12:46:10.297Z,98812.41
2024-01-04T12:51:16.463Z,98809.56
2024-01-04T12:56:21.681Z,98815.94
2024-01-04T13:01:26.090Z,98817.47
2024-01-04T13:06:29.565Z,98817.19
2024-01-04T13:11:32.979Z,98833.94
2024-01-04T13:16:37.480Z,98848.44
2024-01-04T13:21:40.573Z,98857.56
2024-01-04T13:26:45.059Z,98870.53
2024-01-04T13:31:49.774Z,98879.84
2024-01-04T13:36:52.682Z,98898.66
2024-01-04T13:41:55.668Z,98901.94
2024-01-04T13:46:59.908Z,98909.94
2024-01-04T13:52:04.346Z,98925.16
2024-01-04T13:57:07.260Z,98939.34
2024-01-04T14:02:11.554Z,98938.38
2024-01-04T14:07:14.439Z,98945.56
2024-01-04T14:12:17.386Z,98973.44
2024-01-04T14:17:21.699Z,98984.81
2024-01-04T14:22:24.538Z,99002.94
2024-01-04T14:27:28.087Z,99015.75
2024-01-04T14:32:33.714Z,99014.78
2024-01-04T14:37:39.827Z,99021.38
2024-01-04T14:42:43.145Z,99036.69
2024-01-04T14:47:48.068Z,99028.63
2024-01-04T14:52:51.248Z,99039.78
2024-01-04T14:57:54.956Z,99054.84
2024-01-04T15:02:59.359Z,99061.88
2024-01-04T15:08:03.950Z,99083.41
2024-01-04T15:13:07.229Z,99085.22
2024-01-04T15:18:12.363Z,99102.25
2024-01-04T15:23:17.151Z,99098.88
2024-01-04T15:28:20.888Z,99106.75
2024-01-04T15:33:25.566Z,99123.16
2024-01-04T15:38:28.886Z,99131.47
2024-01-04T15:43:32.149Z,99130.75
2024-01-04T15:48:36.991Z,99137.09
2024-01-04T15:53:40.072Z,99152.72
2024-01-04T15:58:43.027Z,99159.03
2024-01-04T16:03:48.020Z,99173.13
2024-01-04T16:08:51.007Z,99173.13
2024-01-04T16:13:53.891Z,99182.81
2024-01-04T16:18:58.261Z,99191.69
2024-01-04T16:24:01.400Z,99186.47
2024-01-04T16:29:04.876Z,99193.50
2024-01-04T16:34:09.119Z,99198.75
2024-01-04T16:39:14.077Z,99199.59
2024-01-04T16:44:17.036Z,99202.13
2024-01-04T16:49:22.644Z,99216.91
2024-01-04T16:54:25.793Z,99213.13
2024-01-04T16:59:28.741Z,99227.09
2024-01-04T17:04:32.975Z,99236.41
2024-01-04T17:09:36.116Z,99250.75
2024-01-04T17:14:39.090Z,99263.03
2024-01-04T17:19:43.525Z,99264.25
2024-01-04T17:24:46.456Z,99283.13
2024-01-04T17:29:49.371Z,99284.94
2024-01-04T17:34:53.560Z,99285.66
2024-01-04T17:39:56.777Z,99284.09
2024-01-04T17:45:00.683Z,99286.06
2024-01-04T17:50:07.329Z,99285.31
2024-01-04T17:55:11.423Z,99276.34
2024-01-04T18:00:15.533Z,99279.97
2024-01-04T18:05:19.927Z,99288.13
2024-01-04T18:10:22.925Z,99297.38
2024-01-04T18:15:26.282Z,99302.03
2024-01-04T18:20:31.294Z,99315.53
2024-01-04T18:25:35.111Z,99320.97
2024-01-04T18:30:38.329Z,99324.50
2024-01-04T18:35:43.846Z,99335.41
2024-01-04T18:40:46.834Z,99337.28
2024-01-04T18:45:49.761Z,99338.63
2024-01-04T18:50:53.984Z,99353.66
2024-01-04T18:55:56.995Z,99361.75
2024-01-04T19:01:00.381Z,99356.75
2024-01-04T19:06:05.250Z,99358.88
2024-01-04T19:11:08.490Z,99355.69
2024-01-04T19:16:11.547Z,99363.78
2024-01-04T19:21:15.803Z,99367.34
2024-01-04T19:26:21.508Z,99387.25
2024-01-04T19:31:24.364Z,99382.34
2024-01-04T19:36:29.778Z,99381.81
2024-01-04T19:41:32.678Z,99386.66
2024-01-04T19:46:36.742Z,99381.72
2024-01-04T19:51:41.264Z,99392.91
2024-01-04T19:56:44.531Z,99391.53
2024-01-04T20:01:49.233Z,99406.09
2024-01-04T20:06:53.450Z,99403.88
2024-01-04T20:11:56.345Z,99403.31
2024-01-04T20:16:59.282Z,99418.16
2024-01-04T20:22:03.759Z,99419.69
2024-01-04T20:27:06.969Z,99418.56
2024-01-04T20:32:10.176Z,99421.84
2024-01-04T20:37:15.058Z,99426.22
2024-01-04T20:42:18.065Z,99431.16
2024-01-04T20:47:20.964Z,99427.50
2024-01-04T20:52:25.219Z,99428.78
2024-01-04T20:57:28.273Z,99431.34
2024-01-04T21:02:31.573Z,99425.69
2024-01-04T21:07:35.883Z,99434.19
2024-01-04T21:12:38.732Z,99439.25
2024-01-04T21:17:41.606Z,99463.13
2024-01-04T21:22:45.872Z,99453.81
2024-01-04T21:27:49.731Z,99452.69
2024-01-04T21:32:52.654Z,99452.28
2024-01-04T21:37:56.984Z,99454.28
2024-01-04T21:42:59.813Z,99460.75
2024-01-04T21:48:02.769Z,99458.81
2024-01-04T21:53:07.130Z,99448.94
2024-01-04T21:58:10.036Z,99461.09
2024-01-04T22:03:12.975Z,99471.69
2024-01-04T22:08:17.223Z,99475.06
2024-01-04T22:13:20.564Z,99474.94
2024-01-04T22:18:23.613Z,99469.69
2024-01-04T22:23:27.861Z,99474.66
2024-01-04T22:28:30.901Z,99467.47
2024-01-04T22:33:33.952Z,99471.00
2024-01-04T22:38:38.352Z,99464.50
2024-01-04T22:43:41.195Z,99449.69
2024-01-04T22:48:44.082Z,99454.19
2024-01-04T22:53:48.336Z,99446.28
2024-01-04T22:58:51.292Z,99435.72
2024-01-04T23:03:54.194Z,99433.69
2024-01-04T23:08:58.474Z,99432.81
2024-01-04T23:14:02.165Z,99426.59
2024-01-04T23:19:05.148Z,99420.91
2024-01-04T23:24:09.690Z,99421.44
2024-01-04T23:29:12.595Z,99414.94
2024-01-04T23:34:15.593Z,99410.00
2024-01-04T23:39:19.998Z,99403.75
2024-01-04T23:44:23.046Z,99404.72
2024-01-04T23:49:25.994Z,99404.97
2024-01-04T23:54:30.425Z,99412.72
2024-01-04T23:59:33.443Z,99408.84
